Time,TemperatureF,DewpointF,PressureIn,WindDirection,WindDirectionDegrees,WindSpeedMPH,WindSpeedGustMPH,Humidity,HourlyPrecipIn,Conditions,Clouds,dailyrainin,SoftwareType,DateUTC
2013-01-12 00:00:00,41.0,40.5,28.29,WSW,240,2.7,2.7,98,0.00,,---,0.00,VWS V14.01,2013-01-12 06:00:00,
2013-01-12 00:10:00,40.8,40.3,28.29,West,272,3.6,3.6,98,0.00,,---,0.00,VWS V14.01,2013-01-12 06:10:00,
2013-01-12 00:20:00,40.6,40.1,28.29,SE,145,3.1,3.1,98,0.00,,---,0.00,VWS V14.01,2013-01-12 06:20:00,
2013-01-12 00:30:00,40.5,39.9,28.29,SSW,197,2.7,2.7,98,0.00,,---,0.00,VWS V14.01,2013-01-12 06:30:00,
2013-01-12 00:35:00,40.3,39.8,28.29,SW,214,4.0,4.0,98,0.00,,---,0.00,VWS V14.01,2013-01-12 06:35:00,
2013-01-12 00:45:00,40.1,39.6,28.29,WSW,248,0.0,0.0,98,0.00,,---,0.00,VWS V14.01,2013-01-12 06:45:00,
2013-01-12 00:50:00,40.1,39.6,28.29,SSW,196,2.7,2.7,98,0.00,,---,0.00,VWS V14.01,2013-01-12 06:50:00,
2013-01-12 01:00:00,39.9,39.4,28.29,South,176,3.6,3.6,98,0.00,,---,0.00,VWS V14.01,2013-01-12 07:00:00,
2013-01-12 01:10:00,39.7,39.2,28.29,SW,230,4.9,4.9,98,0.00,,---,0.00,VWS V14.01,2013-01-12 07:10:00,
2013-01-12 01:15:00,39.7,39.2,28.32,SW,235,6.3,6.3,98,0.00,,---,0.00,VWS V14.01,2013-01-12 07:15:00,
2013-01-12 01:20:00,39.6,39.0,28.32,SW,223,5.4,5.4,98,0.00,,---,0.00,VWS V14.01,2013-01-12 07:20:00,
2013-01-12 01:30:00,39.4,38.9,28.32,West,260,11.0,11.0,98,0.00,,---,0.00,VWS V14.01,2013-01-12 07:30:00,
2013-01-12 01:35:00,39.2,38.7,28.32,WNW,283,7.2,7.2,98,0.00,,---,0.00,VWS V14.01,2013-01-12 07:35:00,
2013-01-12 01:40:00,39.2,38.7,28.32,West,263,6.3,6.3,98,0.00,,---,0.00,VWS V14.01,2013-01-12 07:40:00,
2013-01-12 01:45:00,39.0,38.5,28.35,West,261,8.3,8.3,98,0.00,,---,0.00,VWS V14.01,2013-01-12 07:45:00,
2013-01-12 01:55:00,37.9,37.2,28.35,West,260,8.1,8.1,97,0.00,,---,0.00,VWS V14.01,2013-01-12 07:55:00,
2013-01-12 02:05:00,36.1,33.8,28.35,SW,225,8.7,8.7,91,0.00,,---,0.00,VWS V14.01,2013-01-12 08:05:00,
2013-01-12 02:10:00,35.8,32.9,28.35,West,277,9.6,9.6,89,0.00,,---,0.00,VWS V14.01,2013-01-12 08:10:00,
2013-01-12 02:20:00,34.2,30.4,28.35,SSE,161,0.0,0.0,86,0.00,,---,0.00,VWS V14.01,2013-01-12 08:20:00,
2013-01-12 02:25:00,33.8,29.8,28.35,SW,221,0.0,0.0,85,0.00,,---,0.00,VWS V14.01,2013-01-12 08:25:00,
2013-01-12 02:30:00,33.3,29.2,28.38,SW,221,0.0,0.0,85,0.00,,---,0.00,VWS V14.01,2013-01-12 08:30:00,
2013-01-12 02:35:00,32.7,28.4,28.38,WSW,243,0.0,0.0,84,0.00,,---,0.00,VWS V14.01,2013-01-12 08:35:00,
2013-01-12 02:45:00,31.5,26.3,28.38,WSW,239,0.0,0.0,81,0.00,,---,0.00,VWS V14.01,2013-01-12 08:45:00,
2013-01-12 02:55:00,30.2,24.8,28.38,WSW,258,0.0,0.0,80,0.00,,---,0.00,VWS V14.01,2013-01-12 08:55:00,
2013-01-12 03:05:00,27.9,21.6,28.41,WSW,246,0.0,0.0,77,0.00,,---,0.00,VWS V14.01,2013-01-12 09:05:00,
2013-01-12 03:10:00,26.4,19.3,28.41,WNW,283,0.0,0.0,74,0.00,,---,0.00,VWS V14.01,2013-01-12 09:10:00,
2013-01-12 03:15:00,25.7,18.6,28.41,West,273,0.0,0.0,74,0.00,,---,0.00,VWS V14.01,2013-01-12 09:15:00,
2013-01-12 03:20:00,25.0,17.9,28.41,West,264,0.0,0.0,74,0.00,,---,0.00,VWS V14.01,2013-01-12 09:20:00,
2013-01-12 03:30:00,24.3,17.2,28.41,WSW,256,0.0,0.0,74,0.00,,---,0.00,VWS V14.01,2013-01-12 09:30:00,
2013-01-12 03:40:00,23.4,16.0,28.41,West,276,0.0,0.0,73,0.00,,---,0.00,VWS V14.01,2013-01-12 09:40:00,
2013-01-12 03:45:00,23.0,15.6,28.44,WSW,249,0.0,0.0,73,0.00,,---,0.00,VWS V14.01,2013-01-12 09:45:00,
2013-01-12 03:55:00,21.9,14.0,28.44,West,275,0.0,0.0,71,0.00,,---,0.00,VWS V14.01,2013-01-12 09:55:00,
2013-01-12 04:05:00,21.2,13.0,28.44,SSW,204,0.0,0.0,70,0.00,,---,0.00,VWS V14.01,2013-01-12 10:05:00,
2013-01-12 04:15:00,20.7,11.4,28.47,West,270,0.0,0.0,67,0.00,,---,0.00,VWS V14.01,2013-01-12 10:15:00,
2013-01-12 04:20:00,20.3,10.1,28.47,SW,228,0.0,0.0,64,0.00,,---,0.00,VWS V14.01,2013-01-12 10:20:00,
2013-01-12 04:30:00,20.1,10.3,28.47,West,270,0.0,0.0,65,0.00,,---,0.00,VWS V14.01,2013-01-12 10:30:00,
2013-01-12 04:40:00,19.8,9.6,28.47,West,272,0.0,0.0,64,0.00,,---,0.00,VWS V14.01,2013-01-12 10:40:00,
2013-01-12 04:45:00,19.6,8.7,28.47,WNW,302,0.0,0.0,62,0.00,,---,0.00,VWS V14.01,2013-01-12 10:45:00,
2013-01-12 04:50:00,19.6,9.1,28.47,NW,304,0.0,0.0,63,0.00,,---,0.00,VWS V14.01,2013-01-12 10:50:00,
2013-01-12 05:00:00,19.2,8.4,28.50,WNW,293,0.0,0.0,62,0.00,,---,0.00,VWS V14.01,2013-01-12 11:00:00,
2013-01-12 05:05:00,19.0,8.5,28.50,NW,304,0.0,0.0,63,0.00,,---,0.00,VWS V14.01,2013-01-12 11:05:00,
2013-01-12 05:15:00,18.7,8.5,28.53,NW,308,0.0,0.0,64,0.00,,---,0.00,VWS V14.01,2013-01-12 11:15:00,
2013-01-12 05:25:00,18.5,9.4,28.53,West,259,0.0,0.0,67,0.00,,---,0.00,VWS V14.01,2013-01-12 11:25:00,
2013-01-12 05:30:00,18.5,10.0,28.53,WSW,251,0.0,0.0,69,0.00,,---,0.00,VWS V14.01,2013-01-12 11:30:00,
2013-01-12 05:40:00,18.1,8.7,28.53,WSW,252,0.0,0.0,66,0.00,,---,0.00,VWS V14.01,2013-01-12 11:40:00,
2013-01-12 05:50:00,17.6,7.2,28.53,WNW,288,0.0,0.0,63,0.00,,---,0.00,VWS V14.01,2013-01-12 11:50:00,
2013-01-12 06:00:00,17.6,7.5,28.56,West,271,0.0,0.0,64,0.00,,---,0.00,VWS V14.01,2013-01-12 12:00:00,
2013-01-12 06:05:00,17.4,7.7,28.56,WSW,251,0.0,0.0,65,0.00,,---,0.00,VWS V14.01,2013-01-12 12:05:00,
2013-01-12 06:15:00,17.6,7.8,28.56,WSW,237,0.0,0.0,65,0.00,,---,0.00,VWS V14.01,2013-01-12 12:15:00,
2013-01-12 06:25:00,16.9,6.1,28.56,West,262,0.0,0.0,62,0.00,,---,0.00,VWS V14.01,2013-01-12 12:25:00,
2013-01-12 06:30:00,16.9,5.8,28.59,NW,321,0.0,0.0,61,0.00,,---,0.00,VWS V14.01,2013-01-12 12:30:00,
2013-01-12 06:35:00,16.9,5.8,28.59,NW,311,0.0,0.0,61,0.00,,---,0.00,VWS V14.01,2013-01-12 12:35:00,
2013-01-12 06:45:00,16.7,5.2,28.59,West,266,0.0,0.0,60,0.00,,---,0.00,VWS V14.01,2013-01-12 12:45:00,
2013-01-12 06:50:00,16.3,4.5,28.59,WSW,242,0.0,0.0,59,0.00,,---,0.00,VWS V14.01,2013-01-12 12:50:00,
2013-01-12 07:00:00,16.2,4.4,28.61,West,261,0.0,0.0,59,0.00,,---,0.00,VWS V14.01,2013-01-12 13:00:00,
2013-01-12 07:10:00,15.8,3.7,28.61,West,266,0.0,0.0,58,0.00,,---,0.00,VWS V14.01,2013-01-12 13:10:00,
2013-01-12 07:20:00,15.4,3.3,28.61,WNW,282,0.0,0.0,58,0.00,,---,0.00,VWS V14.01,2013-01-12 13:20:00,
2013-01-12 07:30:00,15.1,2.6,28.64,WNW,298,0.0,0.0,57,0.00,,---,0.00,VWS V14.01,2013-01-12 13:30:00,
2013-01-12 07:35:00,15.1,2.6,28.64,NW,322,0.0,0.0,57,0.00,,---,0.00,VWS V14.01,2013-01-12 13:35:00,
2013-01-12 07:40:00,14.9,2.4,28.64,West,273,0.0,0.0,57,0.00,,---,0.00,VWS V14.01,2013-01-12 13:40:00,
2013-01-12 07:45:00,14.7,1.9,28.64,West,277,0.0,0.0,56,0.00,,---,0.00,VWS V14.01,2013-01-12 13:45:00,
2013-01-12 07:55:00,14.4,1.5,28.64,WSW,246,0.0,0.0,56,0.00,,---,0.00,VWS V14.01,2013-01-12 13:55:00,
2013-01-12 08:00:00,14.2,1.4,28.67,WSW,258,0.0,0.0,56,0.00,,---,0.00,VWS V14.01,2013-01-12 14:00:00,
2013-01-12 08:10:00,13.8,1.4,28.67,West,262,0.0,0.0,57,0.00,,---,0.00,VWS V14.01,2013-01-12 14:10:00,
2013-01-12 08:15:00,13.8,1.4,28.67,West,265,0.0,0.0,57,0.00,,---,0.00,VWS V14.01,2013-01-12 14:15:00,
2013-01-12 08:20:00,13.8,1.4,28.67,WSW,245,0.0,0.0,57,0.00,,---,0.00,VWS V14.01,2013-01-12 14:20:00,
2013-01-12 08:25:00,13.6,1.2,28.67,West,268,0.0,0.0,57,0.00,,---,0.00,VWS V14.01,2013-01-12 14:25:00,
2013-01-12 08:35:00,13.6,1.2,28.67,WNW,285,0.0,0.0,57,0.00,,---,0.00,VWS V14.01,2013-01-12 14:35:00,
2013-01-12 08:45:00,13.6,1.2,28.70,West,278,0.0,0.0,57,0.00,,---,0.00,VWS V14.01,2013-01-12 14:45:00,
2013-01-12 08:55:00,13.6,1.2,28.70,WNW,298,0.0,0.0,57,0.00,,---,0.00,VWS V14.01,2013-01-12 14:55:00,
2013-01-12 09:05:00,13.6,1.2,28.70,West,267,0.0,0.0,57,0.00,,---,0.00,VWS V14.01,2013-01-12 15:05:00,
2013-01-12 09:15:00,13.5,1.1,28.73,West,271,0.0,0.0,57,0.00,,---,0.00,VWS V14.01,2013-01-12 15:15:00,
2013-01-12 09:20:00,13.5,1.1,28.73,WNW,282,0.0,0.0,57,0.00,,---,0.00,VWS V14.01,2013-01-12 15:20:00,
2013-01-12 09:30:00,13.6,1.2,28.73,NNW,332,0.0,0.0,57,0.00,,---,0.00,VWS V14.01,2013-01-12 15:30:00,
2013-01-12 09:40:00,13.6,1.2,28.73,WSW,243,0.0,0.0,57,0.00,,---,0.00,VWS V14.01,2013-01-12 15:40:00,
2013-01-12 09:45:00,13.8,1.4,28.73,West,265,0.0,0.0,57,0.00,,---,0.00,VWS V14.01,2013-01-12 15:45:00,
2013-01-12 09:55:00,13.8,0.6,28.73,West,279,0.0,0.0,55,0.00,,---,0.00,VWS V14.01,2013-01-12 15:55:00,
2013-01-12 10:00:00,13.5,0.3,28.73,West,269,0.0,0.0,55,0.00,,---,0.00,VWS V14.01,2013-01-12 16:00:00,
2013-01-12 10:05:00,13.5,0.3,28.73,WNW,303,0.0,0.0,55,0.00,,---,0.00,VWS V14.01,2013-01-12 16:05:00,
2013-01-12 10:15:00,13.8,0.6,28.76,West,276,0.0,0.0,55,0.00,,---,0.00,VWS V14.01,2013-01-12 16:15:00,
2013-01-12 10:25:00,13.6,-0.7,28.76,WNW,289,0.0,0.0,52,0.00,,---,0.00,VWS V14.01,2013-01-12 16:25:00,
2013-01-12 10:30:00,13.6,-0.7,28.76,WSW,244,6.7,6.7,52,0.00,,---,0.00,VWS V14.01,2013-01-12 16:30:00,
2013-01-12 10:40:00,13.8,-0.5,28.76,WSW,245,8.7,8.7,52,0.00,,---,0.00,VWS V14.01,2013-01-12 16:40:00,
2013-01-12 10:50:00,13.8,-0.5,28.79,West,279,4.0,4.0,52,0.00,,---,0.00,VWS V14.01,2013-01-12 16:50:00,
2013-01-12 10:55:00,13.8,-0.5,28.79,West,272,8.3,8.3,52,0.00,,---,0.00,VWS V14.01,2013-01-12 16:55:00,
2013-01-12 11:05:00,13.6,-0.7,28.79,West,266,5.8,5.8,52,0.00,,---,0.00,VWS V14.01,2013-01-12 17:05:00,
2013-01-12 11:15:00,13.8,-0.5,28.79,West,265,3.6,3.6,52,0.00,,---,0.00,VWS V14.01,2013-01-12 17:15:00,
2013-01-12 11:25:00,14.2,-1.0,28.79,WNW,297,5.4,5.4,50,0.00,,---,0.00,VWS V14.01,2013-01-12 17:25:00,
2013-01-12 11:35:00,14.4,-0.9,28.79,NW,321,5.8,5.8,50,0.00,,---,0.00,VWS V14.01,2013-01-12 17:35:00,
2013-01-12 11:40:00,14.2,-1.5,28.79,West,279,7.6,7.6,49,0.00,,---,0.00,VWS V14.01,2013-01-12 17:40:00,
2013-01-12 11:50:00,14.7,-0.5,28.79,West,276,6.3,6.3,50,0.00,,---,0.00,VWS V14.01,2013-01-12 17:50:00,
2013-01-12 12:00:00,13.8,-1.8,28.79,WNW,283,8.1,8.1,49,0.00,,---,0.00,VWS V14.01,2013-01-12 18:00:00,
2013-01-12 12:10:00,14.4,-1.7,28.79,WNW,302,8.1,8.1,48,0.00,,---,0.00,VWS V14.01,2013-01-12 18:10:00,
2013-01-12 12:15:00,13.8,-2.2,28.79,West,268,8.7,8.7,48,0.00,,---,0.00,VWS V14.01,2013-01-12 18:15:00,
2013-01-12 12:25:00,13.5,-2.6,28.79,WNW,295,4.5,4.5,48,0.00,,---,0.00,VWS V14.01,2013-01-12 18:25:00,
2013-01-12 12:35:00,12.9,-3.1,28.79,WNW,298,5.4,5.4,48,0.00,,---,0.00,VWS V14.01,2013-01-12 18:35:00,
2013-01-12 12:45:00,13.5,-2.6,28.82,WSW,252,8.3,8.3,48,0.00,,---,0.00,VWS V14.01,2013-01-12 18:45:00,
2013-01-12 12:50:00,13.1,-2.9,28.82,West,279,8.1,8.1,48,0.00,,---,0.00,VWS V14.01,2013-01-12 18:50:00,
2013-01-12 13:00:00,13.1,-2.9,28.79,West,275,8.3,8.3,48,0.00,,---,0.00,VWS V14.01,2013-01-12 19:00:00,
2013-01-12 13:10:00,13.3,-2.7,28.79,WSW,254,6.3,6.3,48,0.00,,---,0.00,VWS V14.01,2013-01-12 19:10:00,
2013-01-12 13:15:00,14.2,-1.5,28.82,SSW,208,8.1,8.1,49,0.00,,---,0.00,VWS V14.01,2013-01-12 19:15:00,
2013-01-12 13:25:00,14.2,-1.9,28.82,NW,304,7.6,7.6,48,0.00,,---,0.00,VWS V14.01,2013-01-12 19:25:00,
2013-01-12 13:35:00,13.5,-2.1,28.82,West,273,6.3,6.3,49,0.00,,---,0.00,VWS V14.01,2013-01-12 19:35:00,
2013-01-12 13:45:00,13.8,-2.2,28.82,West,276,3.1,3.1,48,0.00,,---,0.00,VWS V14.01,2013-01-12 19:45:00,
2013-01-12 13:55:00,12.6,-3.4,28.82,NW,305,3.6,3.6,48,0.00,,---,0.00,VWS V14.01,2013-01-12 19:55:00,
2013-01-12 14:00:00,12.6,-3.4,28.85,West,281,8.7,8.7,48,0.00,,---,0.00,VWS V14.01,2013-01-12 20:00:00,
2013-01-12 14:10:00,12.2,-3.7,28.85,WNW,286,8.1,8.1,48,0.00,,---,0.00,VWS V14.01,2013-01-12 20:10:00,
2013-01-12 14:20:00,11.8,-4.1,28.85,WNW,285,8.1,8.1,48,0.00,,---,0.00,VWS V14.01,2013-01-12 20:20:00,
2013-01-12 14:30:00,11.5,-4.4,28.85,West,275,3.6,3.6,48,0.00,,---,0.00,VWS V14.01,2013-01-12 20:30:00,
2013-01-12 14:35:00,11.7,-4.2,28.85,NW,322,5.8,5.8,48,0.00,,---,0.00,VWS V14.01,2013-01-12 20:35:00,
2013-01-12 14:45:00,12.0,-3.9,28.85,WNW,286,5.8,5.8,48,0.00,,---,0.00,VWS V14.01,2013-01-12 20:45:00,
2013-01-12 14:55:00,11.8,-4.1,28.85,WNW,300,4.0,4.0,48,0.00,,---,0.00,VWS V14.01,2013-01-12 20:55:00,
2013-01-12 15:00:00,11.7,-4.2,28.85,WNW,287,5.8,5.8,48,0.00,,---,0.00,VWS V14.01,2013-01-12 21:00:00,
2013-01-12 15:10:00,11.1,-4.7,28.85,West,273,5.8,5.8,48,0.00,,---,0.00,VWS V14.01,2013-01-12 21:10:00,
2013-01-12 15:20:00,11.3,-4.6,28.88,West,268,3.1,3.1,48,0.00,,---,0.00,VWS V14.01,2013-01-12 21:20:00,
2013-01-12 15:30:00,11.1,-4.7,28.88,WNW,287,3.6,3.6,48,0.00,,---,0.00,VWS V14.01,2013-01-12 21:30:00,
2013-01-12 15:35:00,11.1,-4.7,28.88,NW,309,2.7,2.7,48,0.00,,---,0.00,VWS V14.01,2013-01-12 21:35:00,
2013-01-12 15:45:00,11.1,-4.7,28.88,WSW,252,5.8,5.8,48,0.00,,---,0.00,VWS V14.01,2013-01-12 21:45:00,
2013-01-12 15:55:00,10.6,-5.2,28.88,WNW,283,6.3,6.3,48,0.00,,---,0.00,VWS V14.01,2013-01-12 21:55:00,
2013-01-12 16:05:00,10.4,-5.4,28.88,WNW,299,3.1,3.1,48,0.00,,---,0.00,VWS V14.01,2013-01-12 22:05:00,
2013-01-12 16:15:00,10.2,-5.6,28.88,WNW,288,10.1,10.1,48,0.00,,---,0.00,VWS V14.01,2013-01-12 22:15:00,
2013-01-12 16:20:00,9.9,-5.9,28.88,WNW,290,6.3,6.3,48,0.00,,---,0.00,VWS V14.01,2013-01-12 22:20:00,
2013-01-12 16:30:00,9.7,-6.1,28.88,WNW,286,3.1,3.1,48,0.00,,---,0.00,VWS V14.01,2013-01-12 22:30:00,
2013-01-12 16:40:00,9.5,-6.2,28.88,West,264,5.4,5.4,48,0.00,,---,0.00,VWS V14.01,2013-01-12 22:40:00,
2013-01-12 16:50:00,9.5,-6.2,28.88,NW,316,6.3,6.3,48,0.00,,---,0.00,VWS V14.01,2013-01-12 22:50:00,
2013-01-12 16:55:00,9.3,-6.4,28.88,WNW,291,4.9,4.9,48,0.00,,---,0.00,VWS V14.01,2013-01-12 22:55:00,
2013-01-12 17:00:00,9.0,-6.7,28.91,West,268,2.7,2.7,48,0.00,,---,0.00,VWS V14.01,2013-01-12 23:00:00,
2013-01-12 17:05:00,8.8,-6.9,28.91,West,279,5.4,5.4,48,0.00,,---,0.00,VWS V14.01,2013-01-12 23:05:00,
2013-01-12 17:10:00,8.8,-6.9,28.91,WNW,285,6.3,6.3,48,0.00,,---,0.00,VWS V14.01,2013-01-12 23:10:00,
2013-01-12 17:15:00,8.8,-6.9,28.91,WNW,301,2.2,2.2,48,0.00,,---,0.00,VWS V14.01,2013-01-12 23:15:00,
2013-01-12 17:25:00,8.6,-7.1,28.91,WSW,254,4.9,4.9,48,0.00,,---,0.00,VWS V14.01,2013-01-12 23:25:00,
2013-01-12 17:30:00,8.6,-7.1,28.91,West,274,3.6,3.6,48,0.00,,---,0.00,VWS V14.01,2013-01-12 23:30:00,
2013-01-12 17:40:00,8.4,-7.2,28.91,NW,324,8.7,8.7,48,0.00,,---,0.00,VWS V14.01,2013-01-12 23:40:00,
2013-01-12 17:45:00,8.4,-7.2,28.94,West,269,3.1,3.1,48,0.00,,---,0.00,VWS V14.01,2013-01-12 23:45:00,
2013-01-12 17:55:00,8.1,-7.6,28.94,West,281,5.8,5.8,48,0.00,,---,0.00,VWS V14.01,2013-01-12 23:55:00,
2013-01-12 18:05:00,7.9,-7.7,28.94,West,277,3.6,3.6,48,0.00,,---,0.00,VWS V14.01,2013-01-13 00:05:00,
2013-01-12 18:15:00,7.9,-7.7,28.94,WNW,286,5.4,5.4,48,0.00,,---,0.00,VWS V14.01,2013-01-13 00:15:00,
2013-01-12 18:25:00,7.7,-7.9,28.94,West,269,6.7,6.7,48,0.00,,---,0.00,VWS V14.01,2013-01-13 00:25:00,
2013-01-12 18:30:00,7.5,-8.1,28.94,West,264,3.1,3.1,48,0.00,,---,0.00,VWS V14.01,2013-01-13 00:30:00,
2013-01-12 18:40:00,7.3,-8.2,28.94,West,265,3.6,3.6,48,0.00,,---,0.00,VWS V14.01,2013-01-13 00:40:00,
2013-01-12 18:50:00,7.2,-8.4,28.94,WNW,294,3.6,3.6,48,0.00,,---,0.00,VWS V14.01,2013-01-13 00:50:00,
2013-01-12 18:55:00,7.0,-8.6,28.94,WSW,245,5.4,5.4,48,0.00,,---,0.00,VWS V14.01,2013-01-13 00:55:00,
2013-01-12 19:00:00,7.0,-8.6,28.94,WNW,287,2.7,2.7,48,0.00,,---,0.00,VWS V14.01,2013-01-13 01:00:00,
2013-01-12 19:10:00,6.8,-8.7,28.94,WNW,288,4.9,4.9,48,0.00,,---,0.00,VWS V14.01,2013-01-13 01:10:00,
2013-01-12 19:15:00,6.8,-8.7,28.94,NW,320,2.7,2.7,48,0.00,,---,0.00,VWS V14.01,2013-01-13 01:15:00,
2013-01-12 19:20:00,6.8,-8.7,28.94,WNW,295,3.6,3.6,48,0.00,,---,0.00,VWS V14.01,2013-01-13 01:20:00,
2013-01-12 19:25:00,6.8,-8.7,28.94,WNW,293,3.1,3.1,48,0.00,,---,0.00,VWS V14.01,2013-01-13 01:25:00,
2013-01-12 19:35:00,6.6,-8.9,28.94,WNW,284,3.6,3.6,48,0.00,,---,0.00,VWS V14.01,2013-01-13 01:35:00,
2013-01-12 19:40:00,6.4,-9.1,28.94,WNW,301,3.1,3.1,48,0.00,,---,0.00,VWS V14.01,2013-01-13 01:40:00,
2013-01-12 19:50:00,6.4,-9.1,28.94,WNW,297,7.6,7.6,48,0.00,,---,0.00,VWS V14.01,2013-01-13 01:50:00,
2013-01-12 20:00:00,6.3,-9.2,28.94,WNW,297,6.3,6.3,48,0.00,,---,0.00,VWS V14.01,2013-01-13 02:00:00,
2013-01-12 20:10:00,6.1,-9.4,28.94,West,278,4.0,4.0,48,0.00,,---,0.00,VWS V14.01,2013-01-13 02:10:00,
2013-01-12 20:15:00,6.1,-9.4,28.97,West,281,5.4,5.4,48,0.00,,---,0.00,VWS V14.01,2013-01-13 02:15:00,
2013-01-12 20:20:00,6.1,-9.4,28.97,WNW,288,3.6,3.6,48,0.00,,---,0.00,VWS V14.01,2013-01-13 02:20:00,
2013-01-12 20:25:00,6.1,-9.4,28.97,WNW,282,2.7,2.7,48,0.00,,---,0.00,VWS V14.01,2013-01-13 02:25:00,
2013-01-12 20:35:00,5.9,-9.6,28.94,WNW,296,5.4,5.4,48,0.00,,---,0.00,VWS V14.01,2013-01-13 02:35:00,
2013-01-12 20:40:00,5.9,-9.6,28.94,WNW,292,2.7,2.7,48,0.00,,---,0.00,VWS V14.01,2013-01-13 02:40:00,
2013-01-12 20:50:00,5.7,-9.7,28.97,WNW,283,2.7,2.7,48,0.00,,---,0.00,VWS V14.01,2013-01-13 02:50:00,
2013-01-12 20:55:00,5.9,-9.6,28.97,West,277,4.0,4.0,48,0.00,,---,0.00,VWS V14.01,2013-01-13 02:55:00,
2013-01-12 21:05:00,5.7,-9.7,28.97,West,275,4.9,4.9,48,0.00,,---,0.00,VWS V14.01,2013-01-13 03:05:00,
2013-01-12 21:10:00,5.5,-9.9,28.97,WNW,288,2.7,2.7,48,0.00,,---,0.00,VWS V14.01,2013-01-13 03:10:00,
2013-01-12 21:20:00,5.5,-9.9,28.97,West,272,4.0,4.0,48,0.00,,---,0.00,VWS V14.01,2013-01-13 03:20:00,
2013-01-12 21:25:00,5.5,-9.9,28.97,WNW,302,2.2,2.2,48,0.00,,---,0.00,VWS V14.01,2013-01-13 03:25:00,
2013-01-12 21:35:00,5.4,-10.1,28.97,West,281,2.7,2.7,48,0.00,,---,0.00,VWS V14.01,2013-01-13 03:35:00,
2013-01-12 21:40:00,5.4,-10.1,28.97,WNW,302,2.2,2.2,48,0.00,,---,0.00,VWS V14.01,2013-01-13 03:40:00,
2013-01-12 21:45:00,5.4,-10.1,28.97,WNW,286,2.7,2.7,48,0.00,,---,0.00,VWS V14.01,2013-01-13 03:45:00,
2013-01-12 21:50:00,5.4,-10.1,28.97,WNW,286,0.0,0.0,48,0.00,,---,0.00,VWS V14.01,2013-01-13 03:50:00,
2013-01-12 22:00:00,5.4,-10.1,28.97,WNW,286,0.0,0.0,48,0.00,,---,0.00,VWS V14.01,2013-01-13 04:00:00,
2013-01-12 22:10:00,5.4,-10.1,28.97,WNW,290,2.2,2.2,48,0.00,,---,0.00,VWS V14.01,2013-01-13 04:10:00,
2013-01-12 22:20:00,5.0,-10.4,28.97,WNW,294,0.0,0.0,48,0.00,,---,0.00,VWS V14.01,2013-01-13 04:20:00,
2013-01-12 22:25:00,5.0,-10.4,28.97,WNW,287,0.0,0.0,48,0.00,,---,0.00,VWS V14.01,2013-01-13 04:25:00,
2013-01-12 22:35:00,5.0,-10.4,28.97,WNW,294,2.7,2.7,48,0.00,,---,0.00,VWS V14.01,2013-01-13 04:35:00,
2013-01-12 22:40:00,5.2,-10.2,28.97,NNW,340,0.0,0.0,48,0.00,,---,0.00,VWS V14.01,2013-01-13 04:40:00,
2013-01-12 22:50:00,5.0,-10.4,28.97,NW,320,0.0,0.0,48,0.00,,---,0.00,VWS V14.01,2013-01-13 04:50:00,
2013-01-12 22:55:00,4.8,-10.6,28.97,WNW,286,3.1,3.1,48,0.00,,---,0.00,VWS V14.01,2013-01-13 04:55:00,
2013-01-12 23:00:00,4.8,-10.6,28.97,NW,323,0.0,0.0,48,0.00,,---,0.00,VWS V14.01,2013-01-13 05:00:00,
2013-01-12 23:05:00,4.8,-10.6,28.97,NW,306,3.6,3.6,48,0.00,,---,0.00,VWS V14.01,2013-01-13 05:05:00,
2013-01-12 23:10:00,4.5,-10.9,28.97,NW,308,2.7,2.7,48,0.00,,---,0.00,VWS V14.01,2013-01-13 05:10:00,
2013-01-12 23:15:00,4.5,-10.9,28.97,WNW,284,2.2,2.2,48,0.00,,---,0.00,VWS V14.01,2013-01-13 05:15:00,
2013-01-12 23:25:00,4.3,-11.1,28.97,NW,316,0.0,0.0,48,0.00,,---,0.00,VWS V14.01,2013-01-13 05:25:00,
2013-01-12 23:30:00,4.3,-11.1,28.97,NW,310,2.2,2.2,48,0.00,,---,0.00,VWS V14.01,2013-01-13 05:30:00,
2013-01-12 23:35:00,4.3,-11.1,28.97,WNW,301,2.2,2.2,48,0.00,,---,0.00,VWS V14.01,2013-01-13 05:35:00,
2013-01-12 23:45:00,4.1,-11.2,28.97,NW,313,0.0,0.0,48,0.00,,---,0.00,VWS V14.01,2013-01-13 05:45:00,
2013-01-12 23:55:00,4.1,-11.2,28.97,NNW,327,3.1,3.1,48,0.00,,---,0.00,VWS V14.01,2013-01-13 05:55:00,